Time;durP1;ratioP1;P1;durP2;ratioP2;P2;SDS_P1;SDS_P2;PMS_P1;PMS_P2;Temp;Humidity;BMP_temperature;BMP_pressure;BME280_temperature;BME280_humidity;BME280_pressure;Samples;Min_cycle;Max_cycle;Signal;HPM_P1;HPM_P2
2022/05/13 00:00:17;;;;;;;7.10;2.00;;;;;;;;;;5075109;28;20028;-64
2022/05/13 00:02:44;;;;;;;7.30;2.00;;;;;;;;;;5075394;28;20135;-65
2022/05/13 00:05:10;;;;;;;13.43;2.05;;;;;;;;;;5074167;28;20487;-64
2022/05/13 00:07:36;;;;;;;4.18;1.73;;;;;;;;;;5075059;28;20081;-65
2022/05/13 00:10:05;;;;;;;5.10;1.83;;;;;;;;;;5075281;28;20036;-65
2022/05/13 00:12:33;;;;;;;13.73;2.40;;;;;;;;;;5075061;28;20036;-65
2022/05/13 00:15:00;;;;;;;3.72;2.67;;;;;;;;;;5075099;28;20032;-65
2022/05/13 00:17:27;;;;;;;8.93;2.90;;;;;;;;;;5074802;28;20043;-64
2022/05/13 00:19:54;;;;;;;7.88;2.67;;;;;;;;;;5074033;28;20033;-65
2022/05/13 00:22:20;;;;;;;10.32;2.78;;;;;;;;;;5054896;28;20025;-65
2022/05/13 00:24:47;;;;;;;10.32;2.40;;;;;;;;;;5055159;28;20075;-65
2022/05/13 00:27:13;;;;;;;6.68;1.95;;;;;;;;;;5055013;28;20576;-65
2022/05/13 00:29:39;;;;;;;13.07;2.50;;;;;;;;;;5054393;28;20492;-64
2022/05/13 00:32:06;;;;;;;8.45;2.15;;;;;;;;;;5054802;28;20032;-66
2022/05/13 00:34:33;;;;;;;10.02;2.80;;;;;;;;;;5054586;28;20454;-67
2022/05/13 00:37:00;;;;;;;7.93;2.22;;;;;;;;;;5063247;28;20032;-67
2022/05/13 00:39:26;;;;;;;6.22;2.15;;;;;;;;;;5074258;28;20035;-67
2022/05/13 00:41:55;;;;;;;11.55;2.22;;;;;;;;;;5073563;28;20401;-67
2022/05/13 00:44:21;;;;;;;3.78;2.03;;;;;;;;;;5074446;28;20392;-67
2022/05/13 00:46:48;;;;;;;8.15;1.80;;;;;;;;;;5074676;28;20028;-66
2022/05/13 00:49:15;;;;;;;8.98;3.22;;;;;;;;;;5074057;28;20406;-66
2022/05/13 00:51:46;;;;;;;7.35;2.20;;;;;;;;;;5074371;28;20035;-66
2022/05/13 00:54:13;;;;;;;8.50;2.20;;;;;;;;;;5074539;28;20028;-67
2022/05/13 00:56:42;;;;;;;7.53;2.38;;;;;;;;;;5074304;28;20048;-67
2022/05/13 00:59:10;;;;;;;10.73;2.35;;;;;;;;;;5071990;28;20040;-67
2022/05/13 01:01:36;;;;;;;7.00;2.22;;;;;;;;;;5074142;28;20473;-67
2022/05/13 01:04:04;;;;;;;7.22;2.55;;;;;;;;;;5074636;28;20029;-67
2022/05/13 01:06:31;;;;;;;6.50;1.92;;;;;;;;;;5074099;28;20087;-67
2022/05/13 01:08:57;;;;;;;7.47;2.33;;;;;;;;;;5074401;28;20039;-67
2022/05/13 01:11:25;;;;;;;5.32;2.40;;;;;;;;;;5073925;28;20035;-67
2022/05/13 01:13:53;;;;;;;8.60;2.35;;;;;;;;;;5074018;28;20059;-67
2022/05/13 01:16:19;;;;;;;11.60;1.90;;;;;;;;;;5073967;28;20028;-67
2022/05/13 01:18:45;;;;;;;5.53;1.70;;;;;;;;;;5063382;28;20112;-67
2022/05/13 01:21:15;;;;;;;10.27;2.17;;;;;;;;;;5054193;28;20025;-64
2022/05/13 01:23:42;;;;;;;6.18;2.00;;;;;;;;;;5053824;28;20548;-65
2022/05/13 01:26:10;;;;;;;8.77;2.03;;;;;;;;;;5054160;28;20029;-64
2022/05/13 01:28:38;;;;;;;7.43;2.67;;;;;;;;;;5053245;28;20070;-64
2022/05/13 01:31:07;;;;;;;5.50;2.35;;;;;;;;;;5053970;28;20036;-65
2022/05/13 01:33:33;;;;;;;6.10;1.83;;;;;;;;;;5053486;28;20035;-64
2022/05/13 01:36:01;;;;;;;7.00;2.10;;;;;;;;;;5054047;28;20032;-64
2022/05/13 01:38:29;;;;;;;11.95;1.98;;;;;;;;;;5059227;28;20033;-64
2022/05/13 01:40:55;;;;;;;6.53;2.08;;;;;;;;;;5073709;28;20024;-64
2022/05/13 01:43:22;;;;;;;9.57;1.80;;;;;;;;;;5073148;28;20500;-64
2022/05/13 01:45:48;;;;;;;7.05;2.40;;;;;;;;;;5073720;28;20025;-65
2022/05/13 01:48:15;;;;;;;8.20;2.30;;;;;;;;;;5072820;28;20499;-64
2022/05/13 01:50:41;;;;;;;9.10;1.92;;;;;;;;;;5057085;28;20099;-64
2022/05/13 01:53:08;;;;;;;3.95;2.30;;;;;;;;;;5053121;28;20032;-64
2022/05/13 01:55:34;;;;;;;5.60;2.25;;;;;;;;;;5052479;28;20052;-65
2022/05/13 01:58:01;;;;;;;11.57;2.08;;;;;;;;;;5052668;28;20028;-65
2022/05/13 02:00:27;;;;;;;9.88;2.10;;;;;;;;;;5052290;28;20086;-64
2022/05/13 02:05:38;;;;;;;6.38;1.90;;;;;;;;;;5053520;28;20036;-64
2022/05/13 02:08:05;;;;;;;6.57;2.47;;;;;;;;;;5055233;28;20025;-64
2022/05/13 02:10:31;;;;;;;5.28;1.83;;;;;;;;;;5050312;28;20044;-64
2022/05/13 02:12:57;;;;;;;5.53;1.70;;;;;;;;;;5053163;28;20091;-64
2022/05/13 02:15:23;;;;;;;5.50;2.10;;;;;;;;;;5052508;28;20036;-64
2022/05/13 02:17:49;;;;;;;10.63;2.40;;;;;;;;;;5052767;28;20392;-65
2022/05/13 02:20:16;;;;;;;8.25;1.95;;;;;;;;;;5051220;28;20021;-64
2022/05/13 02:22:42;;;;;;;4.32;1.77;;;;;;;;;;5049626;28;20025;-65
2022/05/13 02:25:08;;;;;;;8.32;2.03;;;;;;;;;;5054444;28;20041;-65
2022/05/13 02:27:35;;;;;;;7.25;2.15;;;;;;;;;;5050516;28;20032;-65
2022/05/13 02:30:01;;;;;;;5.68;1.95;;;;;;;;;;5052308;28;20028;-64
2022/05/13 02:32:27;;;;;;;6.00;2.17;;;;;;;;;;5051894;28;20028;-65
2022/05/13 02:34:53;;;;;;;7.53;1.98;;;;;;;;;;5035967;28;20029;-65
2022/05/13 02:37:19;;;;;;;7.38;1.95;;;;;;;;;;5052362;28;20029;-65
2022/05/13 02:39:45;;;;;;;5.15;1.70;;;;;;;;;;5056614;28;20083;-64
2022/05/13 02:42:11;;;;;;;7.20;1.70;;;;;;;;;;5052237;28;20021;-65
2022/05/13 02:44:37;;;;;;;6.25;2.20;;;;;;;;;;5054699;28;20401;-64
2022/05/13 02:47:03;;;;;;;8.07;2.20;;;;;;;;;;5052037;28;20393;-65
2022/05/13 02:49:30;;;;;;;9.45;2.05;;;;;;;;;;5052099;28;20409;-64
2022/05/13 02:51:56;;;;;;;5.70;1.88;;;;;;;;;;5051818;28;20123;-65
2022/05/13 02:54:22;;;;;;;7.80;2.00;;;;;;;;;;5053388;28;20060;-65
2022/05/13 02:56:48;;;;;;;8.65;2.30;;;;;;;;;;5050979;28;20055;-64
2022/05/13 02:59:14;;;;;;;10.13;2.40;;;;;;;;;;5053145;28;20032;-65
2022/05/13 03:01:40;;;;;;;8.00;2.20;;;;;;;;;;5051844;28;20400;-65
2022/05/13 03:04:06;;;;;;;7.32;1.98;;;;;;;;;;5046349;28;20025;-64
2022/05/13 03:06:32;;;;;;;10.80;2.38;;;;;;;;;;5050211;28;20488;-64
2022/05/13 03:08:58;;;;;;;7.15;2.20;;;;;;;;;;5051451;28;20033;-64
2022/05/13 03:11:25;;;;;;;5.13;2.05;;;;;;;;;;5051882;28;20047;-65
2022/05/13 03:13:52;;;;;;;6.80;2.00;;;;;;;;;;5051297;28;20047;-65
2022/05/13 03:16:20;;;;;;;6.90;2.90;;;;;;;;;;5051872;28;20017;-65
2022/05/13 03:18:47;;;;;;;8.23;2.75;;;;;;;;;;5051242;28;20042;-64
2022/05/13 03:21:13;;;;;;;10.38;2.55;;;;;;;;;;5044514;28;20025;-65
2022/05/13 03:23:42;;;;;;;7.13;2.72;;;;;;;;;;5059324;28;20031;-65
2022/05/13 03:26:09;;;;;;;10.73;3.15;;;;;;;;;;5036356;28;20480;-65
2022/05/13 03:28:35;;;;;;;9.90;3.03;;;;;;;;;;5049920;28;20393;-65
2022/05/13 03:31:01;;;;;;;10.07;2.00;;;;;;;;;;5050411;28;20025;-65
2022/05/13 03:33:27;;;;;;;7.45;2.08;;;;;;;;;;5051483;28;20040;-65
2022/05/13 03:35:53;;;;;;;6.57;2.13;;;;;;;;;;5049251;28;20017;-65
2022/05/13 03:38:20;;;;;;;8.52;2.47;;;;;;;;;;5055926;28;20036;-65
2022/05/13 03:40:46;;;;;;;5.32;2.00;;;;;;;;;;5070023;28;20384;-66
2022/05/13 03:43:12;;;;;;;5.88;2.13;;;;;;;;;;5050575;28;20057;-66
2022/05/13 03:45:39;;;;;;;9.50;2.10;;;;;;;;;;5051360;28;20025;-66
2022/05/13 03:48:05;;;;;;;9.60;1.95;;;;;;;;;;5051491;28;20026;-66
2022/05/13 03:50:32;;;;;;;7.75;2.38;;;;;;;;;;5051910;28;20018;-66
2022/05/13 03:52:59;;;;;;;10.00;2.80;;;;;;;;;;5063166;28;20530;-66
2022/05/13 03:55:25;;;;;;;8.80;2.00;;;;;;;;;;5071499;28;20052;-66
2022/05/13 03:57:51;;;;;;;13.18;3.35;;;;;;;;;;5059720;28;20037;-66
2022/05/13 04:00:18;;;;;;;5.38;2.00;;;;;;;;;;5051723;28;20033;-66
2022/05/13 04:02:44;;;;;;;8.73;2.15;;;;;;;;;;5051461;28;20025;-66
2022/05/13 04:10:41;;;;;;;7.43;2.63;;;;;;;;;;5052093;28;20481;-65
2022/05/13 04:16:04;;;;;;;8.10;2.05;;;;;;;;;;5051261;28;20049;-65
2022/05/13 04:18:34;;;;;;;10.82;2.33;;;;;;;;;;5051290;28;20039;-64
2022/05/13 04:21:04;;;;;;;9.40;2.45;;;;;;;;;;5051035;28;20021;-64
2022/05/13 04:23:30;;;;;;;6.95;2.22;;;;;;;;;;5051253;28;20443;-64
2022/05/13 04:25:56;;;;;;;6.28;2.65;;;;;;;;;;5051261;28;20039;-64
2022/05/13 04:28:22;;;;;;;5.40;2.30;;;;;;;;;;5051836;28;20382;-64
2022/05/13 04:30:48;;;;;;;6.00;1.98;;;;;;;;;;5051127;28;20040;-64
2022/05/13 04:33:15;;;;;;;10.68;2.97;;;;;;;;;;5051420;28;20029;-64
2022/05/13 04:35:41;;;;;;;7.68;2.80;;;;;;;;;;5054728;28;20037;-64
2022/05/13 04:38:08;;;;;;;9.10;2.42;;;;;;;;;;5057387;28;20035;-64
2022/05/13 04:40:34;;;;;;;4.13;2.25;;;;;;;;;;5075073;28;20029;-64
2022/05/13 04:43:00;;;;;;;10.05;2.50;;;;;;;;;;5074696;28;20028;-64
2022/05/13 04:45:31;;;;;;;9.20;2.42;;;;;;;;;;5074867;28;20031;-64
2022/05/13 04:48:18;;;;;;;10.93;2.67;;;;;;;;;;5074172;28;20104;-64
2022/05/13 04:50:44;;;;;;;7.03;2.40;;;;;;;;;;5070202;28;20017;-65
2022/05/13 04:53:10;;;;;;;8.25;2.50;;;;;;;;;;5052409;28;20024;-64
2022/05/13 04:55:37;;;;;;;6.63;2.38;;;;;;;;;;5056369;28;20464;-65
2022/05/13 04:58:04;;;;;;;9.70;2.17;;;;;;;;;;5053568;28;20028;-65
2022/05/13 05:00:30;;;;;;;11.52;4.55;;;;;;;;;;5054001;28;20029;-64
2022/05/13 05:02:56;;;;;;;5.03;2.28;;;;;;;;;;5059380;28;20021;-64
2022/05/13 05:05:23;;;;;;;8.18;2.60;;;;;;;;;;5053607;28;20500;-64
2022/05/13 05:07:49;;;;;;;8.88;2.42;;;;;;;;;;5053515;28;20473;-64
2022/05/13 05:10:15;;;;;;;7.75;2.20;;;;;;;;;;5035352;28;20025;-65
2022/05/13 05:12:41;;;;;;;7.18;2.72;;;;;;;;;;5052962;28;20020;-64
2022/05/13 05:15:08;;;;;;;7.78;2.20;;;;;;;;;;5048693;28;20468;-65
2022/05/13 05:17:34;;;;;;;4.25;1.75;;;;;;;;;;5043278;28;20029;-65
2022/05/13 05:20:01;;;;;;;12.07;2.03;;;;;;;;;;5052250;28;20390;-65
2022/05/13 05:22:27;;;;;;;7.90;2.75;;;;;;;;;;5052864;28;20397;-65
2022/05/13 05:24:53;;;;;;;9.07;2.85;;;;;;;;;;5049140;28;20056;-65
2022/05/13 05:27:19;;;;;;;10.90;2.47;;;;;;;;;;5050138;28;20095;-65
2022/05/13 05:29:46;;;;;;;9.30;2.83;;;;;;;;;;5058683;28;20388;-65
2022/05/13 05:32:13;;;;;;;9.02;2.40;;;;;;;;;;5055601;28;20037;-65
2022/05/13 05:34:39;;;;;;;8.18;2.10;;;;;;;;;;5033097;28;20038;-66
2022/05/13 05:37:05;;;;;;;21.15;2.63;;;;;;;;;;5034265;28;20389;-65
2022/05/13 05:39:31;;;;;;;9.00;2.45;;;;;;;;;;5033560;28;20037;-65
2022/05/13 05:41:57;;;;;;;4.55;2.08;;;;;;;;;;5033317;28;20364;-65
2022/05/13 05:44:23;;;;;;;11.18;2.30;;;;;;;;;;5050680;28;20032;-65
2022/05/13 05:46:49;;;;;;;8.27;2.22;;;;;;;;;;5047690;28;20036;-66
2022/05/13 05:49:15;;;;;;;8.35;2.88;;;;;;;;;;5071463;28;20027;-66
2022/05/13 05:51:41;;;;;;;10.75;2.50;;;;;;;;;;5061734;28;20035;-66
2022/05/13 05:59:37;;;;;;;13.38;3.53;;;;;;;;;;5059700;28;20178;-64
2022/05/13 06:02:03;;;;;;;14.98;3.50;;;;;;;;;;5052267;28;20025;-64
2022/05/13 06:04:29;;;;;;;16.00;4.03;;;;;;;;;;5044134;28;20025;-64
2022/05/13 06:06:55;;;;;;;11.02;3.95;;;;;;;;;;5048555;28;20040;-64
2022/05/13 06:09:22;;;;;;;12.43;3.67;;;;;;;;;;5039829;28;20028;-65
2022/05/13 06:11:48;;;;;;;12.52;4.45;;;;;;;;;;5037089;28;20040;-64
2022/05/13 06:14:15;;;;;;;14.20;4.38;;;;;;;;;;5052992;28;20040;-65
2022/05/13 06:16:41;;;;;;;14.52;5.22;;;;;;;;;;5054459;28;20393;-65
2022/05/13 06:19:08;;;;;;;15.93;5.13;;;;;;;;;;5051926;28;20048;-65
2022/05/13 06:21:36;;;;;;;16.90;5.80;;;;;;;;;;5038582;28;20037;-65
2022/05/13 06:24:02;;;;;;;18.58;4.93;;;;;;;;;;5068548;28;20115;-66
2022/05/13 06:26:29;;;;;;;14.35;5.28;;;;;;;;;;5050019;28;20070;-66
2022/05/13 06:28:56;;;;;;;10.73;4.88;;;;;;;;;;5053517;28;20025;-66
2022/05/13 06:31:23;;;;;;;19.98;5.18;;;;;;;;;;5040945;28;20542;-66
2022/05/13 06:33:50;;;;;;;17.45;5.40;;;;;;;;;;5046277;28;20139;-66
2022/05/13 06:36:17;;;;;;;19.17;5.55;;;;;;;;;;5050336;28;20024;-66
2022/05/13 06:38:43;;;;;;;20.00;5.57;;;;;;;;;;5054964;28;20029;-66
2022/05/13 06:41:09;;;;;;;18.42;5.90;;;;;;;;;;5049522;28;20477;-66
2022/05/13 06:43:35;;;;;;;12.25;5.10;;;;;;;;;;5053008;28;20040;-66
2022/05/13 06:46:02;;;;;;;17.70;5.20;;;;;;;;;;5049664;28;20033;-66
2022/05/13 06:48:28;;;;;;;17.27;5.25;;;;;;;;;;5050658;28;20029;-66
2022/05/13 06:50:54;;;;;;;14.40;5.38;;;;;;;;;;5049980;28;20037;-66
2022/05/13 06:53:21;;;;;;;13.48;5.85;;;;;;;;;;5048474;28;20558;-66
2022/05/13 06:55:48;;;;;;;13.88;5.40;;;;;;;;;;5046305;28;20041;-66
2022/05/13 06:58:14;;;;;;;18.45;5.43;;;;;;;;;;5046894;28;20029;-66
2022/05/13 07:00:41;;;;;;;12.88;5.97;;;;;;;;;;5050266;28;20393;-66
2022/05/13 07:03:11;;;;;;;16.42;6.68;;;;;;;;;;5048910;28;20029;-66
2022/05/13 07:05:37;;;;;;;17.27;6.25;;;;;;;;;;5050471;28;20029;-66
2022/05/13 07:08:03;;;;;;;17.73;6.43;;;;;;;;;;5054668;28;20025;-66
2022/05/13 07:10:29;;;;;;;15.38;6.50;;;;;;;;;;5052271;28;20500;-66
2022/05/13 07:12:55;;;;;;;19.35;6.63;;;;;;;;;;5055209;28;20480;-66
2022/05/13 07:15:22;;;;;;;21.35;6.88;;;;;;;;;;5053682;28;20024;-66
2022/05/13 07:17:49;;;;;;;15.55;7.22;;;;;;;;;;5049842;28;20033;-66
2022/05/13 07:20:16;;;;;;;17.05;6.82;;;;;;;;;;5050998;28;20025;-66
2022/05/13 07:22:42;;;;;;;15.60;6.35;;;;;;;;;;5050225;28;20096;-66
2022/05/13 07:25:08;;;;;;;15.27;7.35;;;;;;;;;;5053320;28;20029;-66
2022/05/13 07:27:34;;;;;;;16.15;7.28;;;;;;;;;;5050483;28;20036;-66
2022/05/13 07:30:01;;;;;;;12.60;7.05;;;;;;;;;;5049807;28;20028;-66
2022/05/13 07:32:27;;;;;;;18.88;7.07;;;;;;;;;;5049928;28;20021;-66
2022/05/13 07:34:53;;;;;;;19.38;6.15;;;;;;;;;;5050571;28;20409;-66
2022/05/13 07:37:19;;;;;;;17.52;5.70;;;;;;;;;;5050095;28;20055;-66
2022/05/13 07:42:30;;;;;;;13.80;5.28;;;;;;;;;;5048524;28;20546;-66
2022/05/13 07:44:56;;;;;;;16.52;5.80;;;;;;;;;;5053455;28;20021;-66
2022/05/13 07:47:22;;;;;;;10.98;4.68;;;;;;;;;;5049632;28;20128;-66
2022/05/13 07:49:49;;;;;;;12.70;5.35;;;;;;;;;;5048257;28;20040;-66
2022/05/13 07:52:15;;;;;;;10.48;4.55;;;;;;;;;;5050508;28;20029;-66
2022/05/13 07:54:41;;;;;;;13.32;4.55;;;;;;;;;;5049514;28;20036;-66
2022/05/13 07:57:08;;;;;;;8.25;3.03;;;;;;;;;;5050299;28;20076;-66
2022/05/13 08:00:24;;;;;;;9.73;2.60;;;;;;;;;;5048742;28;20095;-66
2022/05/13 08:02:20;;;;;;;11.77;3.42;;;;;;;;;;5050590;28;20020;-66
2022/05/13 08:04:46;;;;;;;7.22;2.60;;;;;;;;;;5050245;28;20017;-66
2022/05/13 08:07:12;;;;;;;7.72;2.42;;;;;;;;;;5052369;28;20108;-66
2022/05/13 08:09:38;;;;;;;12.57;2.83;;;;;;;;;;5053620;28;20033;-66
2022/05/13 08:12:04;;;;;;;6.55;2.42;;;;;;;;;;5055100;28;20029;-66
2022/05/13 08:14:31;;;;;;;9.02;2.40;;;;;;;;;;5053599;28;20036;-66
2022/05/13 08:16:57;;;;;;;7.22;1.77;;;;;;;;;;5054248;28;20024;-66
2022/05/13 08:19:23;;;;;;;5.82;2.35;;;;;;;;;;5052340;28;20109;-66
2022/05/13 08:21:49;;;;;;;11.82;3.58;;;;;;;;;;5051468;28;20110;-66
2022/05/13 08:24:15;;;;;;;5.13;1.60;;;;;;;;;;5050822;28;20071;-66
2022/05/13 08:26:41;;;;;;;8.45;1.27;;;;;;;;;;5052910;28;20021;-66
2022/05/13 08:29:07;;;;;;;3.78;1.50;;;;;;;;;;5052864;28;20025;-66
2022/05/13 08:31:33;;;;;;;9.60;1.80;;;;;;;;;;5051641;28;20033;-66
2022/05/13 08:33:59;;;;;;;6.40;1.30;;;;;;;;;;5053832;28;20489;-66
2022/05/13 08:36:26;;;;;;;5.30;1.63;;;;;;;;;;5055034;28;20098;-66
2022/05/13 08:38:52;;;;;;;8.93;1.35;;;;;;;;;;5053851;28;20067;-66
2022/05/13 08:41:44;;;;;;;8.48;1.80;;;;;;;;;;5057688;28;20033;-66
2022/05/13 08:44:13;;;;;;;6.30;1.23;;;;;;;;;;5052868;28;20447;-66
2022/05/13 08:46:41;;;;;;;5.43;1.23;;;;;;;;;;5053674;28;20056;-66
2022/05/13 08:49:26;;;;;;;5.90;1.27;;;;;;;;;;5052726;28;20029;-66
2022/05/13 08:51:55;;;;;;;9.30;1.15;;;;;;;;;;5050593;28;20056;-66
2022/05/13 08:54:23;;;;;;;7.60;1.23;;;;;;;;;;5053261;28;20048;-66
2022/05/13 08:57:00;;;;;;;3.63;0.93;;;;;;;;;;5049632;28;20091;-66
2022/05/13 08:59:27;;;;;;;5.32;1.13;;;;;;;;;;5055304;28;20025;-66
2022/05/13 09:01:54;;;;;;;7.63;1.13;;;;;;;;;;5051811;28;20028;-66
2022/05/13 09:04:25;;;;;;;8.00;1.10;;;;;;;;;;5052031;28;20017;-66
2022/05/13 09:06:52;;;;;;;2.72;1.08;;;;;;;;;;5051607;28;20028;-66
2022/05/13 09:09:18;;;;;;;8.07;0.88;;;;;;;;;;5051971;28;20063;-66
2022/05/13 09:12:02;;;;;;;6.75;0.90;;;;;;;;;;5049306;28;20037;-66
2022/05/13 09:14:41;;;;;;;2.47;0.80;;;;;;;;;;5050984;28;20495;-66
2022/05/13 09:17:20;;;;;;;8.15;0.98;;;;;;;;;;5052130;28;20029;-66
2022/05/13 09:19:46;;;;;;;2.60;0.88;;;;;;;;;;5049212;28;20029;-66
2022/05/13 09:22:13;;;;;;;4.95;0.68;;;;;;;;;;5051279;28;20020;-66
2022/05/13 09:24:41;;;;;;;6.82;1.10;;;;;;;;;;5044070;28;20032;-66
2022/05/13 09:27:07;;;;;;;3.88;0.80;;;;;;;;;;5054565;28;20024;-66
2022/05/13 09:29:40;;;;;;;3.75;1.35;;;;;;;;;;5051010;28;20040;-66
2022/05/13 09:32:08;;;;;;;5.70;1.10;;;;;;;;;;5050823;28;20031;-66
2022/05/13 09:34:47;;;;;;;1.75;1.00;;;;;;;;;;5053856;28;20463;-66
2022/05/13 09:37:20;;;;;;;6.65;1.25;;;;;;;;;;5049621;28;20029;-66
2022/05/13 09:39:48;;;;;;;4.53;1.00;;;;;;;;;;5051189;28;20060;-66
2022/05/13 09:42:26;;;;;;;3.28;0.80;;;;;;;;;;5051823;28;20021;-66
2022/05/13 09:45:09;;;;;;;3.00;0.70;;;;;;;;;;5047775;28;20025;-66
2022/05/13 09:47:36;;;;;;;2.25;0.65;;;;;;;;;;5049363;28;20025;-66
2022/05/13 09:50:02;;;;;;;4.07;1.00;;;;;;;;;;5050774;28;20108;-66
2022/05/13 09:52:35;;;;;;;3.20;0.60;;;;;;;;;;5051478;28;20072;-66
2022/05/13 09:55:25;;;;;;;1.25;0.50;;;;;;;;;;5051073;28;20036;-66
2022/05/13 09:57:52;;;;;;;4.15;0.60;;;;;;;;;;5036110;28;20118;-65
2022/05/13 10:00:22;;;;;;;3.03;0.60;;;;;;;;;;5049658;28;20493;-66
2022/05/13 10:02:50;;;;;;;2.95;1.40;;;;;;;;;;5045634;28;20030;-66
2022/05/13 10:05:21;;;;;;;0.98;0.43;;;;;;;;;;5052452;28;20017;-66
2022/05/13 10:07:48;;;;;;;1.95;0.68;;;;;;;;;;5049925;28;20473;-66
2022/05/13 10:15:51;;;;;;;6.00;0.80;;;;;;;;;;5054516;28;20488;-66
2022/05/13 10:18:17;;;;;;;6.53;1.25;;;;;;;;;;5049063;28;20032;-66
2022/05/13 10:20:44;;;;;;;4.78;0.75;;;;;;;;;;5050395;28;20074;-66
2022/05/13 10:23:10;;;;;;;5.40;0.95;;;;;;;;;;5054248;28;20029;-66
2022/05/13 10:25:45;;;;;;;3.13;0.90;;;;;;;;;;5051247;28;20047;-66
2022/05/13 10:28:13;;;;;;;1.20;0.52;;;;;;;;;;5053670;28;20021;-66
2022/05/13 10:30:55;;;;;;;2.53;1.08;;;;;;;;;;5049194;28;20029;-66
2022/05/13 10:33:24;;;;;;;2.28;0.55;;;;;;;;;;5049699;28;20378;-66
2022/05/13 10:36:11;;;;;;;2.63;0.68;;;;;;;;;;5049259;28;20017;-66
2022/05/13 10:38:48;;;;;;;1.35;0.50;;;;;;;;;;5054058;28;20021;-66
2022/05/13 10:41:33;;;;;;;1.77;0.60;;;;;;;;;;5052935;28;20025;-66
2022/05/13 10:43:59;;;;;;;3.72;0.70;;;;;;;;;;5051932;28;20028;-66
2022/05/13 10:46:45;;;;;;;1.27;0.43;;;;;;;;;;5051775;28;20032;-66
2022/05/13 10:49:12;;;;;;;1.85;0.50;;;;;;;;;;5051988;28;20037;-66
2022/05/13 10:51:40;;;;;;;3.42;0.63;;;;;;;;;;5060519;28;20033;-66
2022/05/13 10:54:12;;;;;;;1.27;0.85;;;;;;;;;;5050167;28;20028;-66
2022/05/13 10:56:57;;;;;;;2.30;0.70;;;;;;;;;;5050302;28;20132;-66
2022/05/13 10:59:32;;;;;;;1.88;0.40;;;;;;;;;;5050596;28;20583;-66
2022/05/13 11:02:05;;;;;;;2.78;0.82;;;;;;;;;;5049682;28;20563;-66
2022/05/13 11:04:37;;;;;;;2.22;0.57;;;;;;;;;;5043932;28;20052;-66
2022/05/13 11:07:03;;;;;;;2.92;0.80;;;;;;;;;;5046308;28;20409;-66
2022/05/13 11:09:39;;;;;;;2.85;1.35;;;;;;;;;;5045917;28;20024;-66
2022/05/13 11:12:08;;;;;;;2.95;0.73;;;;;;;;;;5049270;28;20060;-66
2022/05/13 11:14:46;;;;;;;3.53;0.60;;;;;;;;;;5048904;28;20032;-66
2022/05/13 11:17:17;;;;;;;1.25;0.52;;;;;;;;;;5047465;28;20493;-66
2022/05/13 11:19:49;;;;;;;4.20;0.70;;;;;;;;;;5045086;28;20061;-66
2022/05/13 11:22:39;;;;;;;3.70;0.70;;;;;;;;;;5048466;28;20040;-66
2022/05/13 11:28:13;;;;;;;2.30;0.50;;;;;;;;;;5046544;28;20076;-66
2022/05/13 11:30:58;;;;;;;2.85;0.60;;;;;;;;;;5057828;28;20519;-66
2022/05/13 11:33:29;;;;;;;4.43;0.70;;;;;;;;;;5045821;28;20078;-66
2022/05/13 11:36:02;;;;;;;4.30;0.95;;;;;;;;;;5048036;28;20120;-66
2022/05/13 11:38:47;;;;;;;3.25;0.90;;;;;;;;;;5052165;28;20081;-69
2022/05/13 11:41:16;;;;;;;5.55;0.75;;;;;;;;;;5050631;28;20029;-69
2022/05/13 11:43:57;;;;;;;6.07;0.80;;;;;;;;;;5052425;28;20044;-69
2022/05/13 11:46:33;;;;;;;3.90;0.90;;;;;;;;;;5054711;28;20055;-69
2022/05/13 11:49:06;;;;;;;0.60;0.50;;;;;;;;;;5050929;28;20071;-69
2022/05/13 11:51:34;;;;;;;;;;;;;;;;;;5054753;28;20032;-69
2022/05/13 11:54:00;;;;;;;2.88;0.80;;;;;;;;;;5087417;28;19924;-69
2022/05/13 11:56:26;;;;;;;3.20;0.75;;;;;;;;;;5056523;28;20044;-69
2022/05/13 11:58:52;;;;;;;18.08;1.85;;;;;;;;;;5052268;28;20037;-66
2022/05/13 12:01:37;;;;;;;1.80;0.70;;;;;;;;;;5042637;28;20029;-68
2022/05/13 12:04:29;;;;;;;1.63;0.65;;;;;;;;;;5051956;28;21124;-68
2022/05/13 12:06:57;;;;;;;3.15;0.90;;;;;;;;;;5049829;28;20505;-68
2022/05/13 12:09:29;;;;;;;6.63;1.45;;;;;;;;;;5047469;28;20397;-68
2022/05/13 12:11:58;;;;;;;2.17;0.90;;;;;;;;;;5051644;28;20111;-68
2022/05/13 12:14:30;;;;;;;2.33;0.73;;;;;;;;;;5052160;28;20033;-68
2022/05/13 12:17:09;;;;;;;1.77;0.90;;;;;;;;;;5052386;28;20056;-68
2022/05/13 12:19:43;;;;;;;2.80;0.80;;;;;;;;;;5043116;28;20086;-68
2022/05/13 12:22:09;;;;;;;2.33;0.90;;;;;;;;;;5050200;28;20088;-68
2022/05/13 12:24:54;;;;;;;3.15;0.80;;;;;;;;;;5051782;28;20021;-68
2022/05/13 12:27:34;;;;;;;1.95;0.80;;;;;;;;;;5054106;28;20024;-68
2022/05/13 12:30:02;;;;;;;3.42;0.70;;;;;;;;;;5055410;28;20020;-68
2022/05/13 12:32:49;;;;;;;4.43;1.00;;;;;;;;;;5050087;28;20118;-68
2022/05/13 12:38:07;;;;;;;1.60;0.70;;;;;;;;;;5048523;28;20029;-68
2022/05/13 12:40:39;;;;;;;3.17;0.80;;;;;;;;;;5051741;28;20405;-68
2022/05/13 12:43:14;;;;;;;3.43;0.60;;;;;;;;;;5052818;28;20025;-68
2022/05/13 12:45:58;;;;;;;5.55;0.82;;;;;;;;;;5051384;28;20078;-68
2022/05/13 12:48:24;;;;;;;4.22;0.80;;;;;;;;;;5047590;28;20025;-68
2022/05/13 12:50:51;;;;;;;5.65;0.80;;;;;;;;;;5052304;28;20040;-68
2022/05/13 12:53:29;;;;;;;1.58;0.68;;;;;;;;;;5047907;28;20425;-68
2022/05/13 12:55:57;;;;;;;1.52;0.70;;;;;;;;;;5047139;28;20053;-68
2022/05/13 12:58:24;;;;;;;0.95;0.60;;;;;;;;;;5049094;28;20021;-68
2022/05/13 13:00:51;;;;;;;2.85;1.20;;;;;;;;;;5048150;28;20397;-68
2022/05/13 13:03:19;;;;;;;4.88;1.00;;;;;;;;;;5049102;28;20090;-68
2022/05/13 13:05:56;;;;;;;2.35;1.20;;;;;;;;;;5050492;28;20063;-68
2022/05/13 13:08:24;;;;;;;6.13;1.00;;;;;;;;;;5050007;28;20428;-68
2022/05/13 13:10:50;;;;;;;3.90;1.20;;;;;;;;;;5048638;28;20010;-68
2022/05/13 13:13:22;;;;;;;1.42;0.68;;;;;;;;;;5050005;28;20372;-68
2022/05/13 13:15:53;;;;;;;2.70;1.30;;;;;;;;;;5050313;28;20139;-68
2022/05/13 13:18:28;;;;;;;6.10;1.05;;;;;;;;;;5047242;28;20412;-68
2022/05/13 13:20:56;;;;;;;3.28;0.65;;;;;;;;;;5050041;28;20029;-68
2022/05/13 13:23:22;;;;;;;7.53;1.30;;;;;;;;;;5048096;28;20435;-68
2022/05/13 13:25:52;;;;;;;2.03;0.98;;;;;;;;;;5050396;28;20029;-68
2022/05/13 13:28:25;;;;;;;5.93;1.15;;;;;;;;;;5048687;28;20024;-68
2022/05/13 13:30:56;;;;;;;2.35;0.60;;;;;;;;;;5045491;28;20033;-68
2022/05/13 13:33:25;;;;;;;4.20;0.98;;;;;;;;;;5042380;28;20017;-68
2022/05/13 13:35:51;;;;;;;3.33;0.88;;;;;;;;;;5044397;28;20067;-68
2022/05/13 13:38:18;;;;;;;7.50;0.98;;;;;;;;;;5045114;28;20021;-68
2022/05/13 13:40:46;;;;;;;1.23;0.77;;;;;;;;;;5046040;28;20422;-68
2022/05/13 13:43:15;;;;;;;6.80;1.73;;;;;;;;;;5045554;28;20038;-68
2022/05/13 13:45:43;;;;;;;3.80;1.13;;;;;;;;;;5050421;28;20032;-68
2022/05/13 13:48:11;;;;;;;3.13;0.90;;;;;;;;;;5050591;28;20389;-68
2022/05/13 13:50:45;;;;;;;4.80;0.70;;;;;;;;;;5036606;28;20048;-66
2022/05/13 13:53:11;;;;;;;4.05;0.90;;;;;;;;;;5044075;28;20087;-66
2022/05/13 13:55:39;;;;;;;2.55;1.02;;;;;;;;;;5043667;28;20439;-66
2022/05/13 13:58:24;;;;;;;3.25;0.80;;;;;;;;;;5037563;28;20402;-66
2022/05/13 14:00:50;;;;;;;2.15;0.60;;;;;;;;;;5049135;28;20037;-66
2022/05/13 14:03:21;;;;;;;2.75;1.00;;;;;;;;;;5048952;28;20032;-66
2022/05/13 14:05:52;;;;;;;5.57;0.90;;;;;;;;;;5032069;28;20028;-66
2022/05/13 14:08:18;;;;;;;3.90;1.05;;;;;;;;;;5033058;28;20025;-66
2022/05/13 14:10:46;;;;;;;2.70;0.93;;;;;;;;;;5042301;28;20017;-66
2022/05/13 14:13:12;;;;;;;2.47;0.95;;;;;;;;;;5051269;28;20382;-66
2022/05/13 14:15:49;;;;;;;3.92;0.75;;;;;;;;;;5050751;28;20013;-66
2022/05/13 14:18:17;;;;;;;3.75;0.80;;;;;;;;;;5050751;28;20036;-66
2022/05/13 14:20:43;;;;;;;4.75;1.02;;;;;;;;;;5051202;28;20021;-66
2022/05/13 14:23:10;;;;;;;3.65;0.90;;;;;;;;;;5051058;28;20083;-66
2022/05/13 14:25:45;;;;;;;4.47;0.88;;;;;;;;;;5045881;28;20022;-66
2022/05/13 14:28:13;;;;;;;2.30;1.10;;;;;;;;;;5034025;28;20040;-66
2022/05/13 14:30:42;;;;;;;4.05;1.05;;;;;;;;;;5038126;28;20036;-66
2022/05/13 14:33:09;;;;;;;6.55;0.98;;;;;;;;;;5080319;28;20044;-66
2022/05/13 14:35:35;;;;;;;3.85;0.88;;;;;;;;;;5050732;28;20497;-66
2022/05/13 14:38:09;;;;;;;4.20;0.85;;;;;;;;;;5050742;28;20025;-66
2022/05/13 14:40:35;;;;;;;3.58;0.70;;;;;;;;;;5049485;28;20485;-66
2022/05/13 14:43:04;;;;;;;3.42;0.70;;;;;;;;;;5047076;28;20096;-66
2022/05/13 14:45:35;;;;;;;4.78;1.10;;;;;;;;;;5043866;28;20032;-66
2022/05/13 14:48:20;;;;;;;3.05;0.75;;;;;;;;;;5048103;28;20040;-66
2022/05/13 14:50:55;;;;;;;7.32;1.40;;;;;;;;;;5040635;28;20025;-66
2022/05/13 14:53:21;;;;;;;1.58;0.50;;;;;;;;;;5044693;28;20029;-66
2022/05/13 14:55:55;;;;;;;3.30;0.73;;;;;;;;;;5042959;28;20400;-66
2022/05/13 14:58:23;;;;;;;3.67;1.13;;;;;;;;;;5036327;28;20485;-66
2022/05/13 15:00:50;;;;;;;3.75;0.90;;;;;;;;;;5042149;28;20021;-66
2022/05/13 15:03:27;;;;;;;4.70;0.90;;;;;;;;;;5049915;28;20021;-66
2022/05/13 15:05:53;;;;;;;3.13;0.95;;;;;;;;;;5070431;28;20029;-66
2022/05/13 15:08:40;;;;;;;5.18;1.10;;;;;;;;;;5046978;28;20017;-66
2022/05/13 15:11:06;;;;;;;1.80;0.98;;;;;;;;;;5046368;28;20036;-66
2022/05/13 15:13:32;;;;;;;6.95;0.90;;;;;;;;;;5039763;28;20092;-66
2022/05/13 15:15:58;;;;;;;2.30;0.88;;;;;;;;;;5049136;28;20078;-66
2022/05/13 15:18:24;;;;;;;3.25;1.20;;;;;;;;;;5034885;28;20025;-65
2022/05/13 15:20:51;;;;;;;5.35;1.02;;;;;;;;;;5048552;28;20028;-65